メインページ
METAR-TAF:

METAR-TAF

空港 :

ウランバートル, モンゴル国

チンギスハーン国際空港

緯度: 47-55N, 経度: 106-52E, 海抜: 1306m

現時点の気象観測

当レポートは14分前の14:30(UTC)に作成
南/南東の風 16kt
気温 21°C
湿度 40%
気圧 1014 hPa
視程10km以上
高度3000ftの雲はほとんどない, 積乱雲.
高度3300ftの雲は散在している

METAR: ZMUB 271430Z 15008MPS 9999 FEW030CB SCT033 21/07 Q1014 NOSIG RMK QFE653.6 40 NT

時間: 23:44 (14:44 UTC)

予報

当レポートは4時間4分前の10:40(UTC)に作成
予報は27日の 12時(UTC)から 28日の 18時(UTC)まで有効
南/南東の風 10kt
視程10km以上
高度3000ftの雲はほとんどない, 積乱雲.
高度3300ftの雲は散在している
27日の 12時(UTC)から 28日の 10時(UTC)まで一時的に
変向風 16kt
高度3000ftの雲は散在している, 積乱雲.
高度3300ftの雲は散在している
激しい雷雨, 弱いにわか雨
28日の 04時(UTC)から 28日の 06時(UTC)まで徐々に
西/南西の風 10kt
28日の 10時(UTC)から 28日の 12時(UTC)まで徐々に
変向風 4kt

TAF: ZMUB 271040Z 2712/2818 16005MPS 9999 FEW030CB SCT033 TN09/2721Z TX31/2807Z TEMPO 2712/2810 VRB08MPS TS -SHRA SCT030CB SCT033 BECMG 2804/2806 24005MPS BECMG 2810/2812 VRB02MPS

4,000以上の空港の気象観測と天気予報(METAR報とTAF報)

利用可能な観測所は地図上に黄色い丸と赤い丸で示す。

丸の上にカーソルを重ねると観測所名を参照できる。

次にクリックすると気象観測と天気予報を参照できる。

マップの切り替え:黒色「×」印の緑ボタンをクリックして拡大、「-」印の緑ボタンをクリックして縮小、緑色の三角印をクリックして隣りの地図に切り替え


METAR-TAF: